createdAt,value
2019-04-04T00:00:52.368Z,95282.72
2019-04-04T00:03:22.537Z,95278.50
2019-04-04T00:05:52.731Z,95279.79
2019-04-04T00:08:22.817Z,95275.14
2019-04-04T00:10:52.911Z,95268.05
2019-04-04T00:13:23.028Z,95278.16
2019-04-04T00:15:53.096Z,95285.71
2019-04-04T00:18:23.182Z,95281.55
2019-04-04T00:20:53.283Z,95276.48
2019-04-04T00:23:23.466Z,95263.90
2019-04-04T00:25:53.526Z,95273.98
2019-04-04T00:28:23.595Z,95273.98
2019-04-04T00:30:53.730Z,95268.95
2019-04-04T00:33:25.609Z,95266.84
2019-04-04T00:35:55.529Z,95267.26
2019-04-04T00:38:25.617Z,95267.26
2019-04-04T00:40:55.723Z,95268.93
2019-04-04T00:43:25.922Z,95263.89
2019-04-04T00:45:56.211Z,95265.16
2019-04-04T00:48:26.343Z,95263.05
2019-04-04T00:50:56.481Z,95254.67
2019-04-04T00:53:26.599Z,95255.53
2019-04-04T00:55:56.741Z,95257.22
2019-04-04T00:58:26.881Z,95242.14
2019-04-04T01:00:56.911Z,95252.19
2019-04-04T01:03:29.757Z,95244.61
2019-04-04T01:05:58.713Z,95241.23
2019-04-04T01:08:28.901Z,95247.95
2019-04-04T01:10:58.981Z,95233.67
2019-04-04T01:13:29.049Z,95229.47
2019-04-04T01:15:59.080Z,95220.66
2019-04-04T01:18:29.236Z,95216.05
2019-04-04T01:20:59.303Z,95214.37
2019-04-04T01:23:29.446Z,95213.54
2019-04-04T01:26:01.335Z,95206.37
2019-04-04T01:28:31.270Z,95196.28
2019-04-04T01:31:01.342Z,95186.23
2019-04-04T01:33:31.415Z,95196.33
2019-04-04T01:36:01.447Z,95196.75
2019-04-04T01:38:31.469Z,95188.36
2019-04-04T01:41:03.973Z,95185.81
2019-04-04T01:43:33.235Z,95176.61
2019-04-04T01:46:03.230Z,95170.31
2019-04-04T01:48:33.271Z,95169.06
2019-04-04T01:51:03.343Z,95167.41
2019-04-04T01:53:33.376Z,95167.01
2019-04-04T01:56:05.860Z,95158.17
2019-04-04T01:58:35.362Z,95152.70
2019-04-04T02:01:05.465Z,95156.08
2019-04-04T02:03:35.527Z,95157.37
2019-04-04T02:06:05.634Z,95143.08
2019-04-04T02:08:35.652Z,95142.23
2019-04-04T02:11:05.991Z,95145.57
2019-04-04T02:13:35.994Z,95151.45
2019-04-04T02:16:06.037Z,95151.49
2019-04-04T02:18:36.040Z,95150.66
2019-04-04T02:21:06.213Z,95154.88
2019-04-04T02:23:36.439Z,95147.73
2019-04-04T02:26:06.545Z,95155.29
2019-04-04T02:28:37.995Z,95150.27
2019-04-04T02:31:09.117Z,95143.97
2019-04-04T02:33:39.192Z,95135.97
2019-04-04T02:36:09.298Z,95138.91
2019-04-04T02:38:39.366Z,95136.38
2019-04-04T02:41:09.460Z,95127.14
2019-04-04T02:43:39.506Z,95122.11
2019-04-04T02:46:11.550Z,95112.06
2019-04-04T02:48:41.384Z,95112.06
2019-04-04T02:51:11.461Z,95097.36
2019-04-04T02:59:09.763Z,95096.50
2019-04-04T03:01:39.982Z,95093.19
2019-04-04T03:04:13.619Z,95080.58
2019-04-04T03:06:43.071Z,95080.58
2019-04-04T03:09:13.305Z,95080.58
2019-04-04T03:11:45.739Z,95084.77
2019-04-04T03:14:15.952Z,95077.61
2019-04-04T03:16:47.127Z,95075.09
2019-04-04T03:19:18.083Z,95064.17
2019-04-04T03:21:48.402Z,95063.31
2019-04-04T03:24:18.525Z,95054.52
2019-04-04T03:26:52.136Z,95049.05
2019-04-04T03:29:22.166Z,95040.66
2019-04-04T03:31:52.451Z,95030.63
2019-04-04T03:34:22.711Z,95035.22
2019-04-04T03:36:53.693Z,95039.83
2019-04-04T03:39:24.683Z,95041.06
2019-04-04T03:41:54.899Z,95033.52
2019-04-04T03:44:26.658Z,95037.28
2019-04-04T03:46:56.874Z,95021.34
2019-04-04T03:49:27.435Z,95017.16
2019-04-04T03:51:57.630Z,95018.02
2019-04-04T03:54:28.494Z,95022.20
2019-04-04T03:56:58.614Z,95026.83
2019-04-04T03:59:32.411Z,95026.01
2019-04-04T04:02:01.558Z,95021.01
2019-04-04T04:04:31.729Z,95007.59
2019-04-04T04:07:03.912Z,95002.13
2019-04-04T04:09:34.952Z,95001.29
2019-04-04T04:12:05.169Z,94998.80
2019-04-04T04:14:35.357Z,95001.31
2019-04-04T04:17:05.605Z,94988.73
2019-04-04T04:19:36.825Z,94992.98
2019-04-04T04:22:07.870Z,94992.13
2019-04-04T04:24:38.871Z,94995.07
2019-04-04T04:27:09.044Z,94984.57
2019-04-04T04:29:39.225Z,94988.72
2019-04-04T04:32:09.427Z,94964.83
2019-04-04T04:34:39.645Z,94972.80
2019-04-04T04:37:09.953Z,94972.00
2019-04-04T04:39:41.447Z,94976.20
2019-04-04T04:42:11.928Z,94948.08
2019-04-04T04:44:42.131Z,94945.16
2019-04-04T04:47:12.311Z,94951.86
2019-04-04T04:49:42.568Z,94928.37
2019-04-04T04:52:15.343Z,94934.29
2019-04-04T04:54:46.026Z,94936.83
2019-04-04T04:57:28.871Z,94933.50
2019-04-04T04:59:48.170Z,94936.86
2019-04-04T05:02:22.156Z,94930.98
2019-04-04T05:04:50.379Z,94924.31
2019-04-04T05:07:21.624Z,94914.30
2019-04-04T05:09:53.640Z,94926.83
2019-04-04T05:12:24.020Z,94912.62
2019-04-04T05:14:54.382Z,94912.19
2019-04-04T05:17:24.668Z,94923.48
2019-04-04T05:19:54.930Z,94913.44
2019-04-04T05:22:30.487Z,94899.20
2019-04-04T05:25:08.308Z,94918.05
2019-04-04T05:27:37.918Z,94905.92
2019-04-04T05:30:08.834Z,94897.56
2019-04-04T05:32:39.140Z,94880.39
2019-04-04T05:35:09.350Z,94883.33
2019-04-04T05:37:40.539Z,94869.94
2019-04-04T05:40:12.641Z,94869.06
2019-04-04T05:42:42.856Z,94859.45
2019-04-04T05:45:14.283Z,94863.20
